sensor_id;sensor_type;location;lat;lon;timestamp;P1;durP1;ratioP1;P2;durP2;ratioP2
18316;SDS011;9284;52.298;21.164;2022-09-25T03:15:45;56.67;;;25.63;;
18316;SDS011;9284;52.298;21.164;2022-09-25T03:18:17;49.70;;;25.97;;
18316;SDS011;9284;52.298;21.164;2022-09-25T03:20:46;51.80;;;26.07;;
18316;SDS011;9284;52.298;21.164;2022-09-25T03:23:14;50.87;;;26.80;;
18316;SDS011;9284;52.298;21.164;2022-09-25T03:25:42;52.80;;;26.23;;
18316;SDS011;9284;52.298;21.164;2022-09-25T03:28:16;48.50;;;25.83;;
18316;SDS011;9284;52.298;21.164;2022-09-25T03:30:55;59.27;;;28.07;;
18316;SDS011;9284;52.298;21.164;2022-09-25T03:33:24;54.47;;;26.37;;
18316;SDS011;9284;52.298;21.164;2022-09-25T03:36:01;55.67;;;27.43;;
18316;SDS011;9284;52.298;21.164;2022-09-25T03:38:31;53.47;;;26.83;;
18316;SDS011;9284;52.298;21.164;2022-09-25T03:41:00;48.37;;;24.63;;
18316;SDS011;9284;52.298;21.164;2022-09-25T03:43:28;52.47;;;25.80;;
18316;SDS011;9284;52.298;21.164;2022-09-25T03:46:00;51.37;;;26.13;;
18316;SDS011;9284;52.298;21.164;2022-09-25T03:48:28;49.60;;;25.57;;
18316;SDS011;9284;52.298;21.164;2022-09-25T03:50:56;50.03;;;25.33;;
18316;SDS011;9284;52.298;21.164;2022-09-25T03:53:26;51.60;;;25.97;;
18316;SDS011;9284;52.298;21.164;2022-09-25T03:55:57;52.03;;;25.37;;
18316;SDS011;9284;52.298;21.164;2022-09-25T03:58:25;46.67;;;24.30;;
18316;SDS011;9284;52.298;21.164;2022-09-25T04:00:53;56.03;;;24.97;;
18316;SDS011;9284;52.298;21.164;2022-09-25T04:03:24;55.07;;;24.77;;
18316;SDS011;9284;52.298;21.164;2022-09-25T04:05:53;50.57;;;25.13;;
18316;SDS011;9284;52.298;21.164;2022-09-25T04:08:23;43.70;;;23.47;;
18316;SDS011;9284;52.298;21.164;2022-09-25T04:10:52;44.77;;;23.63;;
18316;SDS011;9284;52.298;21.164;2022-09-25T04:13:21;48.27;;;24.57;;
18316;SDS011;9284;52.298;21.164;2022-09-25T04:15:50;45.53;;;24.47;;
18316;SDS011;9284;52.298;21.164;2022-09-25T04:18:18;44.50;;;23.67;;
18316;SDS011;9284;52.298;21.164;2022-09-25T04:20:48;48.93;;;24.67;;
18316;SDS011;9284;52.298;21.164;2022-09-25T04:23:16;50.90;;;25.13;;
18316;SDS011;9284;52.298;21.164;2022-09-25T04:25:44;47.97;;;25.20;;
18316;SDS011;9284;52.298;21.164;2022-09-25T04:28:12;50.67;;;25.43;;
18316;SDS011;9284;52.298;21.164;2022-09-25T04:30:40;52.37;;;23.87;;
18316;SDS011;9284;52.298;21.164;2022-09-25T04:33:08;47.33;;;23.90;;
18316;SDS011;9284;52.298;21.164;2022-09-25T04:35:55;45.97;;;24.00;;
18316;SDS011;9284;52.298;21.164;2022-09-25T04:38:23;51.47;;;25.03;;
18316;SDS011;9284;52.298;21.164;2022-09-25T04:40:52;44.17;;;23.87;;
18316;SDS011;9284;52.298;21.164;2022-09-25T04:43:20;48.23;;;24.47;;
18316;SDS011;9284;52.298;21.164;2022-09-25T04:45:48;43.50;;;23.13;;
18316;SDS011;9284;52.298;21.164;2022-09-25T04:48:17;51.70;;;24.43;;
18316;SDS011;9284;52.298;21.164;2022-09-25T04:50:46;47.43;;;24.47;;
18316;SDS011;9284;52.298;21.164;2022-09-25T04:53:18;45.50;;;23.03;;
18316;SDS011;9284;52.298;21.164;2022-09-25T04:55:46;47.30;;;25.70;;
18316;SDS011;9284;52.298;21.164;2022-09-25T04:58:14;49.30;;;23.70;;
18316;SDS011;9284;52.298;21.164;2022-09-25T05:00:42;48.73;;;23.47;;
18316;SDS011;9284;52.298;21.164;2022-09-25T05:03:10;45.93;;;23.23;;
18316;SDS011;9284;52.298;21.164;2022-09-25T05:05:38;50.50;;;25.03;;
18316;SDS011;9284;52.298;21.164;2022-09-25T05:08:08;46.47;;;24.07;;
18316;SDS011;9284;52.298;21.164;2022-09-25T05:10:38;42.90;;;23.97;;
18316;SDS011;9284;52.298;21.164;2022-09-25T05:13:08;45.17;;;24.77;;
18316;SDS011;9284;52.298;21.164;2022-09-25T05:15:37;43.93;;;22.20;;
18316;SDS011;9284;52.298;21.164;2022-09-25T05:18:06;48.17;;;23.73;;
18316;SDS011;9284;52.298;21.164;2022-09-25T05:20:39;41.40;;;22.00;;
18316;SDS011;9284;52.298;21.164;2022-09-25T05:23:07;44.37;;;21.93;;
18316;SDS011;9284;52.298;21.164;2022-09-25T05:25:35;40.93;;;21.93;;
18316;SDS011;9284;52.298;21.164;2022-09-25T05:28:04;49.07;;;23.77;;
18316;SDS011;9284;52.298;21.164;2022-09-25T05:30:33;43.03;;;23.07;;
18316;SDS011;9284;52.298;21.164;2022-09-25T05:33:04;39.67;;;21.87;;
18316;SDS011;9284;52.298;21.164;2022-09-25T05:35:32;47.50;;;21.70;;
18316;SDS011;9284;52.298;21.164;2022-09-25T05:38:01;40.37;;;21.27;;
18316;SDS011;9284;52.298;21.164;2022-09-25T05:40:32;38.43;;;21.43;;
18316;SDS011;9284;52.298;21.164;2022-09-25T05:43:00;40.37;;;20.43;;
18316;SDS011;9284;52.298;21.164;2022-09-25T05:45:30;38.43;;;20.10;;
18316;SDS011;9284;52.298;21.164;2022-09-25T05:47:59;32.88;;;19.23;;
18316;SDS011;9284;52.298;21.164;2022-09-25T05:50:28;37.47;;;18.95;;
18316;SDS011;9284;52.298;21.164;2022-09-25T05:52:58;35.70;;;18.90;;
18316;SDS011;9284;52.298;21.164;2022-09-25T05:55:28;36.87;;;19.57;;
18316;SDS011;9284;52.298;21.164;2022-09-25T05:58:00;37.13;;;19.02;;
18316;SDS011;9284;52.298;21.164;2022-09-25T06:00:28;34.15;;;17.98;;
18316;SDS011;9284;52.298;21.164;2022-09-25T06:02:59;33.00;;;18.13;;
18316;SDS011;9284;52.298;21.164;2022-09-25T06:05:27;31.38;;;17.85;;
18316;SDS011;9284;52.298;21.164;2022-09-25T06:07:55;31.83;;;17.42;;
18316;SDS011;9284;52.298;21.164;2022-09-25T06:10:23;33.55;;;18.67;;
18316;SDS011;9284;52.298;21.164;2022-09-25T06:12:54;31.42;;;16.35;;
18316;SDS011;9284;52.298;21.164;2022-09-25T06:15:24;30.25;;;15.60;;
18316;SDS011;9284;52.298;21.164;2022-09-25T06:17:55;26.15;;;14.75;;
18316;SDS011;9284;52.298;21.164;2022-09-25T06:20:23;24.55;;;14.38;;
18316;SDS011;9284;52.298;21.164;2022-09-25T06:22:51;23.77;;;13.98;;
18316;SDS011;9284;52.298;21.164;2022-09-25T06:25:20;25.05;;;13.95;;
18316;SDS011;9284;52.298;21.164;2022-09-25T06:27:50;25.08;;;13.65;;
18316;SDS011;9284;52.298;21.164;2022-09-25T06:30:19;21.60;;;14.07;;
18316;SDS011;9284;52.298;21.164;2022-09-25T06:32:48;24.00;;;14.07;;
18316;SDS011;9284;52.298;21.164;2022-09-25T06:35:25;23.10;;;13.77;;
18316;SDS011;9284;52.298;21.164;2022-09-25T06:37:55;23.15;;;13.73;;
18316;SDS011;9284;52.298;21.164;2022-09-25T06:40:24;22.33;;;13.70;;
18316;SDS011;9284;52.298;21.164;2022-09-25T06:42:55;25.33;;;13.57;;
18316;SDS011;9284;52.298;21.164;2022-09-25T06:45:25;21.05;;;13.38;;
18316;SDS011;9284;52.298;21.164;2022-09-25T06:48:00;21.52;;;13.60;;
18316;SDS011;9284;52.298;21.164;2022-09-25T06:50:32;26.75;;;13.77;;
18316;SDS011;9284;52.298;21.164;2022-09-25T06:53:33;18.98;;;12.70;;
18316;SDS011;9284;52.298;21.164;2022-09-25T07:07:09;16.42;;;11.20;;
18316;SDS011;9284;52.298;21.164;2022-09-25T07:10:04;15.75;;;10.15;;
18316;SDS011;9284;52.298;21.164;2022-09-25T07:12:36;15.32;;;9.65;;
18316;SDS011;9284;52.298;21.164;2022-09-25T07:15:09;19.27;;;10.80;;
18316;SDS011;9284;52.298;21.164;2022-09-25T07:17:40;13.27;;;9.32;;
18316;SDS011;9284;52.298;21.164;2022-09-25T07:20:25;13.50;;;9.65;;
18316;SDS011;9284;52.298;21.164;2022-09-25T07:22:58;14.98;;;10.02;;
18316;SDS011;9284;52.298;21.164;2022-09-25T07:25:29;14.50;;;9.43;;
18316;SDS011;9284;52.298;21.164;2022-09-25T07:28:03;14.68;;;9.57;;
18316;SDS011;9284;52.298;21.164;2022-09-25T07:30:33;15.30;;;10.13;;
18316;SDS011;9284;52.298;21.164;2022-09-25T07:33:04;18.60;;;11.55;;
18316;SDS011;9284;52.298;21.164;2022-09-25T07:35:48;18.52;;;12.75;;
18316;SDS011;9284;52.298;21.164;2022-09-25T07:38:29;14.57;;;10.23;;
18316;SDS011;9284;52.298;21.164;2022-09-25T07:41:08;17.52;;;11.05;;
18316;SDS011;9284;52.298;21.164;2022-09-25T07:43:49;14.80;;;9.80;;
18316;SDS011;9284;52.298;21.164;2022-09-25T07:46:40;11.02;;;8.60;;
18316;SDS011;9284;52.298;21.164;2022-09-25T07:49:10;10.63;;;7.50;;
18316;SDS011;9284;52.298;21.164;2022-09-25T07:51:39;11.55;;;7.30;;
18316;SDS011;9284;52.298;21.164;2022-09-25T07:54:08;10.35;;;7.22;;
18316;SDS011;9284;52.298;21.164;2022-09-25T07:56:40;11.40;;;7.22;;
18316;SDS011;9284;52.298;21.164;2022-09-25T07:59:12;9.38;;;6.95;;
18316;SDS011;9284;52.298;21.164;2022-09-25T08:01:54;12.80;;;7.80;;
18316;SDS011;9284;52.298;21.164;2022-09-25T08:04:29;11.07;;;6.70;;
18316;SDS011;9284;52.298;21.164;2022-09-25T08:07:00;9.68;;;6.68;;
18316;SDS011;9284;52.298;21.164;2022-09-25T08:09:32;10.50;;;6.68;;
18316;SDS011;9284;52.298;21.164;2022-09-25T08:12:04;11.18;;;6.10;;
18316;SDS011;9284;52.298;21.164;2022-09-25T08:14:35;9.73;;;5.93;;
18316;SDS011;9284;52.298;21.164;2022-09-25T08:17:08;11.25;;;6.38;;
18316;SDS011;9284;52.298;21.164;2022-09-25T08:19:38;8.60;;;6.25;;
18316;SDS011;9284;52.298;21.164;2022-09-25T08:22:13;8.73;;;5.75;;
18316;SDS011;9284;52.298;21.164;2022-09-25T08:24:45;9.32;;;6.05;;
18316;SDS011;9284;52.298;21.164;2022-09-25T08:27:31;8.20;;;5.20;;
18316;SDS011;9284;52.298;21.164;2022-09-25T08:30:07;7.63;;;5.53;;
18316;SDS011;9284;52.298;21.164;2022-09-25T08:32:41;10.52;;;5.82;;
18316;SDS011;9284;52.298;21.164;2022-09-25T08:35:14;10.32;;;5.97;;
18316;SDS011;9284;52.298;21.164;2022-09-25T08:38:14;9.13;;;5.18;;
18316;SDS011;9284;52.298;21.164;2022-09-25T08:40:47;7.18;;;5.20;;
18316;SDS011;9284;52.298;21.164;2022-09-25T08:43:21;7.13;;;4.85;;
18316;SDS011;9284;52.298;21.164;2022-09-25T08:45:57;7.63;;;4.90;;
18316;SDS011;9284;52.298;21.164;2022-09-25T08:48:59;6.70;;;4.65;;
18316;SDS011;9284;52.298;21.164;2022-09-25T08:51:48;6.13;;;4.60;;
18316;SDS011;9284;52.298;21.164;2022-09-25T08:54:26;5.78;;;4.45;;
18316;SDS011;9284;52.298;21.164;2022-09-25T08:57:02;7.65;;;4.43;;
18316;SDS011;9284;52.298;21.164;2022-09-25T08:59:39;7.07;;;4.18;;
18316;SDS011;9284;52.298;21.164;2022-09-25T09:02:11;5.53;;;3.50;;
18316;SDS011;9284;52.298;21.164;2022-09-25T09:04:46;5.65;;;4.07;;
18316;SDS011;9284;52.298;21.164;2022-09-25T09:07:17;6.32;;;3.85;;
18316;SDS011;9284;52.298;21.164;2022-09-25T09:09:56;8.73;;;4.35;;
18316;SDS011;9284;52.298;21.164;2022-09-25T09:12:34;4.95;;;3.58;;
18316;SDS011;9284;52.298;21.164;2022-09-25T09:15:10;5.78;;;3.70;;
18316;SDS011;9284;52.298;21.164;2022-09-25T09:17:45;6.93;;;3.85;;
18316;SDS011;9284;52.298;21.164;2022-09-25T09:20:15;6.25;;;4.20;;
18316;SDS011;9284;52.298;21.164;2022-09-25T09:22:48;7.35;;;3.65;;
18316;SDS011;9284;52.298;21.164;2022-09-25T09:25:26;6.68;;;4.28;;
18316;SDS011;9284;52.298;21.164;2022-09-25T09:28:11;5.13;;;3.17;;
18316;SDS011;9284;52.298;21.164;2022-09-25T09:31:00;5.68;;;3.40;;
18316;SDS011;9284;52.298;21.164;2022-09-25T09:33:39;5.15;;;3.45;;
18316;SDS011;9284;52.298;21.164;2022-09-25T09:36:18;4.43;;;3.53;;
18316;SDS011;9284;52.298;21.164;2022-09-25T09:39:07;6.75;;;4.05;;
18316;SDS011;9284;52.298;21.164;2022-09-25T09:41:53;4.88;;;3.60;;
18316;SDS011;9284;52.298;21.164;2022-09-25T09:47:43;4.85;;;3.63;;
18316;SDS011;9284;52.298;21.164;2022-09-25T09:50:23;6.60;;;3.70;;
18316;SDS011;9284;52.298;21.164;2022-09-25T09:53:09;4.70;;;3.30;;
18316;SDS011;9284;52.298;21.164;2022-09-25T09:55:52;4.80;;;3.42;;
18316;SDS011;9284;52.298;21.164;2022-09-25T09:58:29;4.80;;;3.55;;
18316;SDS011;9284;52.298;21.164;2022-09-25T10:01:10;4.60;;;3.35;;
18316;SDS011;9284;52.298;21.164;2022-09-25T10:04:04;5.80;;;3.85;;
18316;SDS011;9284;52.298;21.164;2022-09-25T10:06:38;4.53;;;3.30;;
18316;SDS011;9284;52.298;21.164;2022-09-25T10:09:10;4.78;;;3.20;;
18316;SDS011;9284;52.298;21.164;2022-09-25T10:11:43;8.18;;;3.35;;
18316;SDS011;9284;52.298;21.164;2022-09-25T10:14:19;5.15;;;3.70;;
18316;SDS011;9284;52.298;21.164;2022-09-25T10:17:05;6.15;;;3.92;;
18316;SDS011;9284;52.298;21.164;2022-09-25T10:19:42;5.93;;;3.65;;
18316;SDS011;9284;52.298;21.164;2022-09-25T10:22:20;5.55;;;3.65;;
18316;SDS011;9284;52.298;21.164;2022-09-25T10:24:52;4.97;;;3.65;;
18316;SDS011;9284;52.298;21.164;2022-09-25T10:27:39;3.83;;;3.00;;
18316;SDS011;9284;52.298;21.164;2022-09-25T10:30:13;5.30;;;3.05;;
18316;SDS011;9284;52.298;21.164;2022-09-25T10:32:55;4.65;;;2.90;;
18316;SDS011;9284;52.298;21.164;2022-09-25T10:35:39;5.28;;;3.15;;
18316;SDS011;9284;52.298;21.164;2022-09-25T10:38:26;5.05;;;3.83;;
18316;SDS011;9284;52.298;21.164;2022-09-25T10:41:01;5.50;;;3.42;;
18316;SDS011;9284;52.298;21.164;2022-09-25T10:43:48;3.88;;;3.05;;
18316;SDS011;9284;52.298;21.164;2022-09-25T10:46:24;6.30;;;3.30;;
18316;SDS011;9284;52.298;21.164;2022-09-25T10:49:11;4.32;;;2.90;;
18316;SDS011;9284;52.298;21.164;2022-09-25T10:52:05;4.32;;;3.10;;
18316;SDS011;9284;52.298;21.164;2022-09-25T10:54:34;3.72;;;2.92;;
18316;SDS011;9284;52.298;21.164;2022-09-25T10:57:14;5.03;;;3.15;;
18316;SDS011;9284;52.298;21.164;2022-09-25T10:59:45;5.00;;;3.05;;
18316;SDS011;9284;52.298;21.164;2022-09-25T11:02:27;5.30;;;3.03;;
18316;SDS011;9284;52.298;21.164;2022-09-25T11:05:01;5.82;;;2.83;;
18316;SDS011;9284;52.298;21.164;2022-09-25T11:07:31;3.75;;;2.92;;
18316;SDS011;9284;52.298;21.164;2022-09-25T11:10:00;5.15;;;2.92;;
18316;SDS011;9284;52.298;21.164;2022-09-25T11:12:28;4.78;;;2.97;;
18316;SDS011;9284;52.298;21.164;2022-09-25T11:14:58;3.58;;;2.80;;
18316;SDS011;9284;52.298;21.164;2022-09-25T11:17:36;4.78;;;3.28;;
18316;SDS011;9284;52.298;21.164;2022-09-25T11:20:19;4.00;;;2.83;;
18316;SDS011;9284;52.298;21.164;2022-09-25T11:22:56;3.03;;;2.50;;
18316;SDS011;9284;52.298;21.164;2022-09-25T11:25:44;5.75;;;4.15;;
18316;SDS011;9284;52.298;21.164;2022-09-25T11:28:21;5.00;;;3.03;;
18316;SDS011;9284;52.298;21.164;2022-09-25T11:30:56;3.83;;;3.00;;
18316;SDS011;9284;52.298;21.164;2022-09-25T11:33:31;3.88;;;2.78;;
18316;SDS011;9284;52.298;21.164;2022-09-25T11:36:09;5.15;;;3.40;;
18316;SDS011;9284;52.298;21.164;2022-09-25T11:38:43;4.05;;;3.00;;
18316;SDS011;9284;52.298;21.164;2022-09-25T11:41:32;4.57;;;2.67;;
18316;SDS011;9284;52.298;21.164;2022-09-25T11:44:08;3.70;;;2.97;;
18316;SDS011;9284;52.298;21.164;2022-09-25T11:46:46;3.97;;;3.03;;
18316;SDS011;9284;52.298;21.164;2022-09-25T11:49:22;3.83;;;3.15;;
18316;SDS011;9284;52.298;21.164;2022-09-25T11:52:16;3.35;;;2.72;;
18316;SDS011;9284;52.298;21.164;2022-09-25T11:58:15;5.50;;;3.40;;
18316;SDS011;9284;52.298;21.164;2022-09-25T12:00:57;5.05;;;3.10;;
18316;SDS011;9284;52.298;21.164;2022-09-25T12:03:36;5.10;;;2.60;;
18316;SDS011;9284;52.298;21.164;2022-09-25T12:06:22;5.97;;;2.72;;
18316;SDS011;9284;52.298;21.164;2022-09-25T12:09:14;3.67;;;3.08;;
18316;SDS011;9284;52.298;21.164;2022-09-25T12:11:55;4.38;;;3.30;;
18316;SDS011;9284;52.298;21.164;2022-09-25T12:14:30;4.90;;;2.85;;
18316;SDS011;9284;52.298;21.164;2022-09-25T12:17:09;3.83;;;2.88;;
18316;SDS011;9284;52.298;21.164;2022-09-25T12:19:44;5.85;;;3.20;;
18316;SDS011;9284;52.298;21.164;2022-09-25T12:22:23;4.95;;;3.45;;
18316;SDS011;9284;52.298;21.164;2022-09-25T12:25:00;3.90;;;2.92;;
18316;SDS011;9284;52.298;21.164;2022-09-25T12:27:42;6.70;;;3.60;;
18316;SDS011;9284;52.298;21.164;2022-09-25T12:30:25;5.72;;;3.80;;
18316;SDS011;9284;52.298;21.164;2022-09-25T12:33:10;6.07;;;3.75;;
18316;SDS011;9284;52.298;21.164;2022-09-25T12:35:46;5.85;;;3.95;;
18316;SDS011;9284;52.298;21.164;2022-09-25T12:38:21;7.07;;;4.35;;
18316;SDS011;9284;52.298;21.164;2022-09-25T12:41:00;5.53;;;3.85;;
18316;SDS011;9284;52.298;21.164;2022-09-25T12:43:42;5.28;;;3.78;;
18316;SDS011;9284;52.298;21.164;2022-09-25T12:46:19;5.68;;;4.03;;
18316;SDS011;9284;52.298;21.164;2022-09-25T12:48:57;5.32;;;3.70;;
18316;SDS011;9284;52.298;21.164;2022-09-25T12:51:37;6.05;;;4.10;;
18316;SDS011;9284;52.298;21.164;2022-09-25T12:54:12;7.32;;;4.10;;
18316;SDS011;9284;52.298;21.164;2022-09-25T12:56:52;8.00;;;5.18;;
18316;SDS011;9284;52.298;21.164;2022-09-25T12:59:28;6.47;;;4.90;;
18316;SDS011;9284;52.298;21.164;2022-09-25T13:02:03;9.00;;;4.95;;
18316;SDS011;9284;52.298;21.164;2022-09-25T13:04:42;6.57;;;4.43;;
18316;SDS011;9284;52.298;21.164;2022-09-25T13:07:26;6.15;;;4.50;;
18316;SDS011;9284;52.298;21.164;2022-09-25T13:09:59;6.88;;;4.80;;
18316;SDS011;9284;52.298;21.164;2022-09-25T13:12:33;6.97;;;4.85;;
18316;SDS011;9284;52.298;21.164;2022-09-25T13:15:06;6.72;;;4.88;;
18316;SDS011;9284;52.298;21.164;2022-09-25T13:17:38;7.03;;;4.63;;
18316;SDS011;9284;52.298;21.164;2022-09-25T13:23:13;5.25;;;4.00;;
18316;SDS011;9284;52.298;21.164;2022-09-25T13:25:43;6.32;;;4.60;;
18316;SDS011;9284;52.298;21.164;2022-09-25T13:28:16;5.93;;;3.80;;
18316;SDS011;9284;52.298;21.164;2022-09-25T13:33:42;5.63;;;4.30;;
18316;SDS011;9284;52.298;21.164;2022-09-25T13:36:28;6.07;;;4.15;;
18316;SDS011;9284;52.298;21.164;2022-09-25T13:39:02;7.30;;;4.65;;
18316;SDS011;9284;52.298;21.164;2022-09-25T13:41:51;5.25;;;4.05;;
18316;SDS011;9284;52.298;21.164;2022-09-25T13:47:48;6.00;;;3.90;;
18316;SDS011;9284;52.298;21.164;2022-09-25T13:50:22;6.18;;;4.00;;
18316;SDS011;9284;52.298;21.164;2022-09-25T13:56:11;4.45;;;3.70;;
18316;SDS011;9284;52.298;21.164;2022-09-25T13:59:21;5.18;;;3.85;;
18316;SDS011;9284;52.298;21.164;2022-09-25T14:02:24;5.93;;;4.40;;
18316;SDS011;9284;52.298;21.164;2022-09-25T14:05:04;5.60;;;3.55;;
18316;SDS011;9284;52.298;21.164;2022-09-25T14:07:33;5.57;;;3.80;;
18316;SDS011;9284;52.298;21.164;2022-09-25T14:10:02;8.23;;;3.90;;
18316;SDS011;9284;52.298;21.164;2022-09-25T14:12:37;5.07;;;3.70;;
18316;SDS011;9284;52.298;21.164;2022-09-25T14:15:15;5.22;;;3.60;;
18316;SDS011;9284;52.298;21.164;2022-09-25T14:17:49;6.07;;;3.97;;
18316;SDS011;9284;52.298;21.164;2022-09-25T14:20:24;7.57;;;4.70;;
18316;SDS011;9284;52.298;21.164;2022-09-25T14:22:59;5.90;;;4.60;;
18316;SDS011;9284;52.298;21.164;2022-09-25T14:25:32;9.23;;;4.38;;
18316;SDS011;9284;52.298;21.164;2022-09-25T14:28:02;6.68;;;4.35;;
18316;SDS011;9284;52.298;21.164;2022-09-25T14:30:46;8.45;;;4.38;;
18316;SDS011;9284;52.298;21.164;2022-09-25T14:33:36;6.20;;;4.30;;
18316;SDS011;9284;52.298;21.164;2022-09-25T14:36:20;5.30;;;4.20;;
18316;SDS011;9284;52.298;21.164;2022-09-25T14:39:04;5.38;;;3.90;;
18316;SDS011;9284;52.298;21.164;2022-09-25T14:41:53;5.65;;;4.10;;
18316;SDS011;9284;52.298;21.164;2022-09-25T14:44:49;7.57;;;3.97;;
18316;SDS011;9284;52.298;21.164;2022-09-25T14:47:29;6.20;;;3.88;;
18316;SDS011;9284;52.298;21.164;2022-09-25T14:50:01;5.30;;;4.10;;
18316;SDS011;9284;52.298;21.164;2022-09-25T14:52:32;6.05;;;4.18;;
18316;SDS011;9284;52.298;21.164;2022-09-25T14:55:06;5.00;;;3.78;;
18316;SDS011;9284;52.298;21.164;2022-09-25T14:57:41;5.32;;;3.90;;
18316;SDS011;9284;52.298;21.164;2022-09-25T15:00:12;5.60;;;4.25;;
18316;SDS011;9284;52.298;21.164;2022-09-25T15:02:43;5.53;;;4.43;;
18316;SDS011;9284;52.298;21.164;2022-09-25T15:05:17;5.45;;;4.32;;
18316;SDS011;9284;52.298;21.164;2022-09-25T15:07:56;5.68;;;4.80;;
18316;SDS011;9284;52.298;21.164;2022-09-25T15:10:31;6.90;;;4.93;;
18316;SDS011;9284;52.298;21.164;2022-09-25T15:13:05;7.47;;;4.32;;
18316;SDS011;9284;52.298;21.164;2022-09-25T15:15:35;6.28;;;4.30;;
18316;SDS011;9284;52.298;21.164;2022-09-25T15:18:07;5.53;;;4.03;;
18316;SDS011;9284;52.298;21.164;2022-09-25T15:20:42;6.13;;;4.43;;
18316;SDS011;9284;52.298;21.164;2022-09-25T15:23:16;5.50;;;3.88;;
18316;SDS011;9284;52.298;21.164;2022-09-25T15:25:47;5.97;;;3.90;;
18316;SDS011;9284;52.298;21.164;2022-09-25T15:28:18;5.20;;;3.83;;
18316;SDS011;9284;52.298;21.164;2022-09-25T15:30:52;6.95;;;4.00;;
18316;SDS011;9284;52.298;21.164;2022-09-25T15:33:23;6.18;;;4.35;;
18316;SDS011;9284;52.298;21.164;2022-09-25T15:35:54;5.45;;;4.25;;
18316;SDS011;9284;52.298;21.164;2022-09-25T15:38:28;7.97;;;4.25;;
18316;SDS011;9284;52.298;21.164;2022-09-25T15:40:57;7.28;;;4.28;;
18316;SDS011;9284;52.298;21.164;2022-09-25T15:43:26;7.38;;;4.45;;
18316;SDS011;9284;52.298;21.164;2022-09-25T15:45:57;6.13;;;4.47;;
18316;SDS011;9284;52.298;21.164;2022-09-25T15:48:53;5.43;;;4.50;;
18316;SDS011;9284;52.298;21.164;2022-09-25T15:51:24;5.40;;;4.43;;
18316;SDS011;9284;52.298;21.164;2022-09-25T15:53:57;6.30;;;4.45;;
18316;SDS011;9284;52.298;21.164;2022-09-25T15:56:27;6.13;;;4.80;;
18316;SDS011;9284;52.298;21.164;2022-09-25T15:58:57;6.10;;;4.50;;
18316;SDS011;9284;52.298;21.164;2022-09-25T16:01:28;5.65;;;4.35;;
18316;SDS011;9284;52.298;21.164;2022-09-25T16:04:17;6.65;;;4.70;;
18316;SDS011;9284;52.298;21.164;2022-09-25T16:07:18;5.97;;;4.38;;
18316;SDS011;9284;52.298;21.164;2022-09-25T16:09:51;6.40;;;4.38;;
18316;SDS011;9284;52.298;21.164;2022-09-25T16:12:21;5.90;;;4.25;;
18316;SDS011;9284;52.298;21.164;2022-09-25T16:14:54;7.28;;;4.47;;
18316;SDS011;9284;52.298;21.164;2022-09-25T16:17:29;7.15;;;4.97;;
18316;SDS011;9284;52.298;21.164;2022-09-25T16:20:00;5.57;;;4.65;;
18316;SDS011;9284;52.298;21.164;2022-09-25T16:22:34;7.18;;;4.93;;
18316;SDS011;9284;52.298;21.164;2022-09-25T16:25:16;7.85;;;4.78;;
18316;SDS011;9284;52.298;21.164;2022-09-25T16:27:53;5.82;;;4.97;;
18316;SDS011;9284;52.298;21.164;2022-09-25T16:30:36;6.07;;;4.65;;
18316;SDS011;9284;52.298;21.164;2022-09-25T16:33:06;7.50;;;5.47;;
18316;SDS011;9284;52.298;21.164;2022-09-25T16:35:49;9.07;;;4.70;;
18316;SDS011;9284;52.298;21.164;2022-09-25T16:41:43;5.88;;;4.53;;
18316;SDS011;9284;52.298;21.164;2022-09-25T16:44:26;9.52;;;5.15;;
18316;SDS011;9284;52.298;21.164;2022-09-25T16:47:16;7.85;;;5.28;;
18316;SDS011;9284;52.298;21.164;2022-09-25T16:49:53;11.02;;;6.75;;
18316;SDS011;9284;52.298;21.164;2022-09-25T16:52:34;8.00;;;6.00;;
18316;SDS011;9284;52.298;21.164;2022-09-25T16:55:24;13.52;;;9.23;;
18316;SDS011;9284;52.298;21.164;2022-09-25T16:57:57;12.23;;;7.70;;
18316;SDS011;9284;52.298;21.164;2022-09-25T17:00:30;16.80;;;10.93;;
18316;SDS011;9284;52.298;21.164;2022-09-25T17:02:59;20.63;;;13.10;;
18316;SDS011;9284;52.298;21.164;2022-09-25T17:05:28;30.90;;;17.45;;
18316;SDS011;9284;52.298;21.164;2022-09-25T17:08:13;27.45;;;16.23;;
18316;SDS011;9284;52.298;21.164;2022-09-25T17:10:43;35.72;;;20.83;;
18316;SDS011;9284;52.298;21.164;2022-09-25T17:13:18;19.80;;;12.25;;
18316;SDS011;9284;52.298;21.164;2022-09-25T17:15:52;8.55;;;6.00;;
18316;SDS011;9284;52.298;21.164;2022-09-25T17:18:23;7.93;;;5.80;;
18316;SDS011;9284;52.298;21.164;2022-09-25T17:20:51;9.00;;;5.97;;
18316;SDS011;9284;52.298;21.164;2022-09-25T17:23:21;7.28;;;5.55;;
18316;SDS011;9284;52.298;21.164;2022-09-25T17:25:51;8.60;;;6.00;;
18316;SDS011;9284;52.298;21.164;2022-09-25T17:28:27;7.63;;;5.85;;
18316;SDS011;9284;52.298;21.164;2022-09-25T17:30:58;9.40;;;5.68;;
18316;SDS011;9284;52.298;21.164;2022-09-25T17:33:28;13.07;;;7.50;;
18316;SDS011;9284;52.298;21.164;2022-09-25T17:35:58;11.23;;;7.03;;
18316;SDS011;9284;52.298;21.164;2022-09-25T17:38:29;25.02;;;12.52;;
18316;SDS011;9284;52.298;21.164;2022-09-25T17:41:02;27.23;;;14.27;;
18316;SDS011;9284;52.298;21.164;2022-09-25T17:43:34;28.15;;;14.65;;
18316;SDS011;9284;52.298;21.164;2022-09-25T17:46:08;22.35;;;12.45;;
18316;SDS011;9284;52.298;21.164;2022-09-25T17:48:37;25.63;;;13.73;;
18316;SDS011;9284;52.298;21.164;2022-09-25T17:51:13;27.50;;;14.48;;
18316;SDS011;9284;52.298;21.164;2022-09-25T17:53:47;60.88;;;29.17;;
18316;SDS011;9284;52.298;21.164;2022-09-25T17:56:18;19.80;;;13.60;;
18316;SDS011;9284;52.298;21.164;2022-09-25T17:58:49;18.23;;;11.75;;
18316;SDS011;9284;52.298;21.164;2022-09-25T18:01:20;21.20;;;12.40;;
18316;SDS011;9284;52.298;21.164;2022-09-25T18:03:53;27.65;;;16.17;;
18316;SDS011;9284;52.298;21.164;2022-09-25T18:06:36;18.80;;;12.50;;
18316;SDS011;9284;52.298;21.164;2022-09-25T18:09:18;14.27;;;10.18;;
18316;SDS011;9284;52.298;21.164;2022-09-25T18:11:58;20.15;;;14.10;;
18316;SDS011;9284;52.298;21.164;2022-09-25T18:14:31;22.33;;;15.90;;
18316;SDS011;9284;52.298;21.164;2022-09-25T18:17:20;14.05;;;9.30;;
18316;SDS011;9284;52.298;21.164;2022-09-25T18:19:53;11.85;;;8.38;;
18316;SDS011;9284;52.298;21.164;2022-09-25T18:22:43;9.75;;;7.25;;
18316;SDS011;9284;52.298;21.164;2022-09-25T18:25:31;12.10;;;8.90;;
18316;SDS011;9284;52.298;21.164;2022-09-25T18:28:19;11.35;;;7.78;;
18316;SDS011;9284;52.298;21.164;2022-09-25T18:30:49;11.25;;;8.18;;
18316;SDS011;9284;52.298;21.164;2022-09-25T18:33:18;11.73;;;8.07;;
18316;SDS011;9284;52.298;21.164;2022-09-25T18:35:51;12.20;;;8.85;;
18316;SDS011;9284;52.298;21.164;2022-09-25T18:38:20;18.80;;;8.85;;
18316;SDS011;9284;52.298;21.164;2022-09-25T18:40:49;15.05;;;9.70;;
18316;SDS011;9284;52.298;21.164;2022-09-25T18:43:35;35.10;;;21.23;;
18316;SDS011;9284;52.298;21.164;2022-09-25T18:46:13;32.90;;;22.77;;
18316;SDS011;9284;52.298;21.164;2022-09-25T18:48:50;14.93;;;10.45;;
18316;SDS011;9284;52.298;21.164;2022-09-25T18:51:33;14.02;;;9.27;;
18316;SDS011;9284;52.298;21.164;2022-09-25T18:54:25;14.60;;;8.43;;
18316;SDS011;9284;52.298;21.164;2022-09-25T18:56:58;10.23;;;7.40;;
18316;SDS011;9284;52.298;21.164;2022-09-25T18:59:33;11.07;;;7.40;;
18316;SDS011;9284;52.298;21.164;2022-09-25T19:02:27;8.73;;;6.68;;
18316;SDS011;9284;52.298;21.164;2022-09-25T19:05:07;9.27;;;7.15;;
18316;SDS011;9284;52.298;21.164;2022-09-25T19:07:44;9.75;;;7.30;;
18316;SDS011;9284;52.298;21.164;2022-09-25T19:10:42;11.40;;;7.63;;
18316;SDS011;9284;52.298;21.164;2022-09-25T19:13:29;12.15;;;7.22;;
18316;SDS011;9284;52.298;21.164;2022-09-25T19:15:59;9.35;;;6.65;;